Time;durP1;ratioP1;P1;durP2;ratioP2;P2;SDS_P1;SDS_P2;PMS_P1;PMS_P2;Temp;Humidity;BMP_temperature;BMP_pressure;BME280_temperature;BME280_humidity;BME280_pressure;Samples;Min_cycle;Max_cycle;Signal;HPM_P1;HPM_P2
2021/09/24 00:00:19;;;;;;;9.85;1.77;;;;;;;;;;5053791;28;20033;-75
2021/09/24 00:02:45;;;;;;;6.63;1.92;;;;;;;;;;5053498;28;20037;-75
2021/09/24 00:05:11;;;;;;;11.30;1.95;;;;;;;;;;5052304;28;20498;-75
2021/09/24 00:07:37;;;;;;;11.75;1.92;;;;;;;;;;5052661;28;20350;-75
2021/09/24 00:10:05;;;;;;;11.63;1.80;;;;;;;;;;5053327;28;20517;-75
2021/09/24 00:12:31;;;;;;;6.97;2.13;;;;;;;;;;5053676;28;20062;-75
2021/09/24 00:14:57;;;;;;;14.95;2.22;;;;;;;;;;5053468;28;20391;-75
2021/09/24 00:17:22;;;;;;;7.70;1.80;;;;;;;;;;5052259;28;20049;-75
2021/09/24 00:19:47;;;;;;;11.85;2.13;;;;;;;;;;5053492;28;20033;-75
2021/09/24 00:22:13;;;;;;;15.18;1.98;;;;;;;;;;5053454;28;20087;-75
2021/09/24 00:24:38;;;;;;;6.22;1.55;;;;;;;;;;5052149;28;20124;-75
2021/09/24 00:27:05;;;;;;;10.77;2.25;;;;;;;;;;5053520;28;20067;-75
2021/09/24 00:29:31;;;;;;;10.45;2.00;;;;;;;;;;5053358;28;20528;-75
2021/09/24 00:31:56;;;;;;;15.13;2.67;;;;;;;;;;5053113;28;20136;-76
2021/09/24 00:34:23;;;;;;;12.68;1.98;;;;;;;;;;5052643;28;20079;-75
2021/09/24 00:36:48;;;;;;;8.50;2.30;;;;;;;;;;5052010;28;20048;-75
2021/09/24 00:39:13;;;;;;;6.20;2.05;;;;;;;;;;5052198;28;20041;-76
2021/09/24 00:41:39;;;;;;;14.35;2.13;;;;;;;;;;5051713;28;20033;-75
2021/09/24 00:44:04;;;;;;;7.78;1.98;;;;;;;;;;5053290;28;20548;-75
2021/09/24 00:46:30;;;;;;;9.95;2.42;;;;;;;;;;5051901;28;20051;-75
2021/09/24 00:48:55;;;;;;;14.18;2.25;;;;;;;;;;5051843;28;20073;-76
2021/09/24 00:51:20;;;;;;;9.85;1.67;;;;;;;;;;5053169;28;20063;-76
2021/09/24 00:53:46;;;;;;;9.25;1.70;;;;;;;;;;5052500;28;20056;-76
2021/09/24 00:56:13;;;;;;;12.23;2.53;;;;;;;;;;5052862;28;20683;-76
2021/09/24 00:58:38;;;;;;;6.78;1.85;;;;;;;;;;5051845;28;20463;-76
2021/09/24 01:01:04;;;;;;;6.97;2.55;;;;;;;;;;5052598;28;20083;-76
2021/09/24 01:03:29;;;;;;;10.23;2.28;;;;;;;;;;5052771;28;20025;-76
2021/09/24 01:05:55;;;;;;;12.95;3.40;;;;;;;;;;5053005;28;20041;-75
2021/09/24 01:08:20;;;;;;;8.82;2.20;;;;;;;;;;5052944;28;20399;-76
2021/09/24 01:10:47;;;;;;;11.55;2.28;;;;;;;;;;5052884;28;20082;-76
2021/09/24 01:13:13;;;;;;;8.38;2.83;;;;;;;;;;5050193;28;20128;-76
2021/09/24 01:15:38;;;;;;;11.40;2.20;;;;;;;;;;5051584;28;20116;-76
2021/09/24 01:18:03;;;;;;;10.18;2.20;;;;;;;;;;5052984;28;20048;-76
2021/09/24 01:20:29;;;;;;;7.38;1.85;;;;;;;;;;5052660;28;20124;-76
2021/09/24 01:22:54;;;;;;;10.38;2.13;;;;;;;;;;5052618;28;20119;-76
2021/09/24 01:25:22;;;;;;;8.60;1.92;;;;;;;;;;5052594;28;20111;-76
2021/09/24 01:27:48;;;;;;;7.90;1.92;;;;;;;;;;5050932;28;20045;-76
2021/09/24 01:30:15;;;;;;;9.45;2.50;;;;;;;;;;5052509;28;20075;-76
2021/09/24 01:32:41;;;;;;;8.80;1.83;;;;;;;;;;5052708;28;20048;-76
2021/09/24 01:35:08;;;;;;;10.45;2.33;;;;;;;;;;5052438;28;20621;-76
2021/09/24 01:37:34;;;;;;;9.15;2.35;;;;;;;;;;5052697;28;20132;-76
2021/09/24 01:40:00;;;;;;;12.15;1.95;;;;;;;;;;5051883;28;20209;-76
2021/09/24 01:42:26;;;;;;;12.20;2.10;;;;;;;;;;5052563;28;20037;-76
2021/09/24 01:44:52;;;;;;;7.35;1.90;;;;;;;;;;5050403;28;20398;-76
2021/09/24 01:47:17;;;;;;;11.05;2.72;;;;;;;;;;5052423;28;20064;-76
2021/09/24 01:49:43;;;;;;;10.80;2.30;;;;;;;;;;5052656;28;20091;-75
2021/09/24 01:52:08;;;;;;;13.20;2.38;;;;;;;;;;5051400;28;20459;-76
2021/09/24 01:54:34;;;;;;;11.27;2.15;;;;;;;;;;5052310;28;20067;-76
2021/09/24 01:56:59;;;;;;;12.77;2.38;;;;;;;;;;5052485;28;20025;-76
2021/09/24 01:59:25;;;;;;;6.25;2.10;;;;;;;;;;5055801;28;20069;-76
2021/09/24 02:01:50;;;;;;;7.68;1.73;;;;;;;;;;5055789;28;20033;-76
2021/09/24 02:04:17;;;;;;;9.45;2.15;;;;;;;;;;5056141;28;20029;-76
2021/09/24 02:06:43;;;;;;;13.27;2.58;;;;;;;;;;5055909;28;20087;-76
2021/09/24 02:09:09;;;;;;;12.95;2.45;;;;;;;;;;5054925;28;20066;-76
2021/09/24 02:11:35;;;;;;;11.60;2.05;;;;;;;;;;5055561;28;20033;-76
2021/09/24 02:14:00;;;;;;;11.45;2.53;;;;;;;;;;5055886;28;20493;-75
2021/09/24 02:16:26;;;;;;;15.73;2.58;;;;;;;;;;5055838;28;20080;-75
2021/09/24 02:18:52;;;;;;;7.38;2.30;;;;;;;;;;5055626;28;20044;-74
2021/09/24 02:21:17;;;;;;;12.15;2.28;;;;;;;;;;5055630;28;20444;-75
2021/09/24 02:23:43;;;;;;;10.25;1.80;;;;;;;;;;5054735;28;20474;-74
2021/09/24 02:26:08;;;;;;;14.82;2.50;;;;;;;;;;5055671;28;20116;-75
2021/09/24 02:28:34;;;;;;;12.65;2.50;;;;;;;;;;5055500;28;20549;-75
2021/09/24 02:31:00;;;;;;;13.52;2.42;;;;;;;;;;5055453;28;20082;-75
2021/09/24 02:33:25;;;;;;;12.00;2.45;;;;;;;;;;5055039;28;20102;-75
2021/09/24 02:35:51;;;;;;;8.88;1.88;;;;;;;;;;5055308;28;20557;-75
2021/09/24 02:38:16;;;;;;;23.95;2.92;;;;;;;;;;5054363;28;20037;-75
2021/09/24 02:40:41;;;;;;;6.55;2.72;;;;;;;;;;5055097;28;20037;-75
2021/09/24 02:43:07;;;;;;;9.40;2.60;;;;;;;;;;5055227;28;20044;-75
2021/09/24 02:45:33;;;;;;;10.20;2.70;;;;;;;;;;5054175;28;20029;-76
2021/09/24 02:47:58;;;;;;;14.75;2.67;;;;;;;;;;5054004;28;20104;-76
2021/09/24 02:50:24;;;;;;;11.13;2.70;;;;;;;;;;5055000;28;20037;-76
2021/09/24 02:52:49;;;;;;;14.85;3.38;;;;;;;;;;5055049;28;20020;-76
2021/09/24 02:55:15;;;;;;;11.98;2.45;;;;;;;;;;5054897;28;20041;-77
2021/09/24 02:57:41;;;;;;;9.85;2.72;;;;;;;;;;5052796;28;20048;-77
2021/09/24 03:00:08;;;;;;;11.73;2.85;;;;;;;;;;5054730;28;20489;-75
2021/09/24 03:02:35;;;;;;;10.23;2.47;;;;;;;;;;5054971;28;20052;-75
2021/09/24 03:05:02;;;;;;;14.77;2.75;;;;;;;;;;5054589;28;20083;-75
2021/09/24 03:07:28;;;;;;;13.15;2.20;;;;;;;;;;5054479;28;20029;-75
2021/09/24 03:09:53;;;;;;;10.70;2.53;;;;;;;;;;5053223;28;20043;-75
2021/09/24 03:12:19;;;;;;;15.00;2.53;;;;;;;;;;5053791;28;20048;-75
2021/09/24 03:14:44;;;;;;;17.08;2.40;;;;;;;;;;5053721;28;20179;-75
2021/09/24 03:17:10;;;;;;;8.48;2.22;;;;;;;;;;5054523;28;20033;-75
2021/09/24 03:19:35;;;;;;;17.00;2.58;;;;;;;;;;5052308;28;20414;-75
2021/09/24 03:22:00;;;;;;;18.90;2.78;;;;;;;;;;5054279;28;20127;-75
2021/09/24 03:24:26;;;;;;;11.07;2.58;;;;;;;;;;5054216;28;20069;-75
2021/09/24 03:26:51;;;;;;;10.68;2.50;;;;;;;;;;5054434;28;20064;-75
2021/09/24 03:29:16;;;;;;;10.13;1.95;;;;;;;;;;5053164;28;20091;-75
2021/09/24 03:31:42;;;;;;;12.00;2.30;;;;;;;;;;5054426;28;20044;-75
2021/09/24 03:34:08;;;;;;;8.02;2.00;;;;;;;;;;5054167;28;20478;-75
2021/09/24 03:36:34;;;;;;;15.85;2.53;;;;;;;;;;5054211;28;20390;-75
2021/09/24 03:39:01;;;;;;;12.60;2.38;;;;;;;;;;5052927;28;20504;-75
2021/09/24 03:41:26;;;;;;;7.78;3.83;;;;;;;;;;5053804;28;20072;-75
2021/09/24 03:43:52;;;;;;;9.32;2.28;;;;;;;;;;5054180;28;20072;-75
2021/09/24 03:46:17;;;;;;;11.43;2.20;;;;;;;;;;5053938;28;20029;-75
2021/09/24 03:48:42;;;;;;;11.32;3.30;;;;;;;;;;5052473;28;20040;-75
2021/09/24 03:51:08;;;;;;;12.43;2.50;;;;;;;;;;5053526;28;20047;-75
2021/09/24 03:53:34;;;;;;;12.55;2.33;;;;;;;;;;5053861;28;20033;-75
2021/09/24 03:55:59;;;;;;;9.95;2.58;;;;;;;;;;5053938;28;20045;-75
2021/09/24 03:58:24;;;;;;;12.63;3.08;;;;;;;;;;5053727;28;20036;-75
2021/09/24 04:00:51;;;;;;;10.02;2.65;;;;;;;;;;5052513;28;20072;-75
2021/09/24 04:03:16;;;;;;;9.05;2.17;;;;;;;;;;5053832;28;20041;-75
2021/09/24 04:05:42;;;;;;;11.45;2.22;;;;;;;;;;5053594;28;20056;-75
2021/09/24 04:08:07;;;;;;;6.90;2.35;;;;;;;;;;5053767;28;20372;-75
2021/09/24 04:10:33;;;;;;;14.43;2.80;;;;;;;;;;5053314;28;20491;-75
2021/09/24 04:12:58;;;;;;;14.07;2.95;;;;;;;;;;5052812;28;20119;-75
2021/09/24 04:15:24;;;;;;;13.77;2.58;;;;;;;;;;5053337;28;20041;-75
2021/09/24 04:17:49;;;;;;;10.68;3.15;;;;;;;;;;5053593;28;20470;-75
2021/09/24 04:20:14;;;;;;;13.77;2.78;;;;;;;;;;5052866;28;20237;-75
2021/09/24 04:22:40;;;;;;;19.88;3.17;;;;;;;;;;5053286;28;20037;-74
2021/09/24 04:25:07;;;;;;;11.18;3.28;;;;;;;;;;5053083;28;20043;-75
2021/09/24 04:27:32;;;;;;;12.18;2.97;;;;;;;;;;5052391;28;20029;-75
2021/09/24 04:29:57;;;;;;;13.57;3.28;;;;;;;;;;5053372;28;20071;-75
2021/09/24 04:32:23;;;;;;;13.20;3.70;;;;;;;;;;5053145;28;20041;-75
2021/09/24 04:34:49;;;;;;;14.73;3.28;;;;;;;;;;5051887;28;20056;-75
2021/09/24 04:37:14;;;;;;;12.10;3.65;;;;;;;;;;5052978;28;20037;-75
2021/09/24 04:39:39;;;;;;;12.18;2.80;;;;;;;;;;5052197;28;20033;-75
2021/09/24 04:42:05;;;;;;;10.25;2.80;;;;;;;;;;5053076;28;20052;-75
2021/09/24 04:44:30;;;;;;;12.25;2.75;;;;;;;;;;5053271;28;20041;-74
2021/09/24 04:46:56;;;;;;;13.38;3.03;;;;;;;;;;5053279;28;20171;-75
2021/09/24 04:49:22;;;;;;;12.38;3.10;;;;;;;;;;5053265;28;20090;-74
2021/09/24 04:51:47;;;;;;;10.73;2.83;;;;;;;;;;5051872;28;20116;-75
2021/09/24 04:54:13;;;;;;;8.98;3.60;;;;;;;;;;5052040;28;20037;-75
2021/09/24 04:56:38;;;;;;;8.80;2.50;;;;;;;;;;5051683;28;20081;-75
2021/09/24 04:59:03;;;;;;;9.45;2.85;;;;;;;;;;5053169;28;20037;-75
2021/09/24 05:01:29;;;;;;;8.57;2.67;;;;;;;;;;5053271;28;20037;-75
2021/09/24 05:03:54;;;;;;;15.02;3.17;;;;;;;;;;5053038;28;20474;-75
2021/09/24 05:06:20;;;;;;;9.45;2.25;;;;;;;;;;5052998;28;20044;-75
2021/09/24 05:08:45;;;;;;;13.38;3.58;;;;;;;;;;5051987;28;20037;-75
2021/09/24 05:11:10;;;;;;;10.32;2.63;;;;;;;;;;5052612;28;20040;-75
2021/09/24 05:13:36;;;;;;;9.13;2.60;;;;;;;;;;5052929;28;20033;-75
2021/09/24 05:16:01;;;;;;;5.70;2.00;;;;;;;;;;5052867;28;20071;-75
2021/09/24 05:18:26;;;;;;;8.35;2.45;;;;;;;;;;5053030;28;20044;-75
2021/09/24 05:20:52;;;;;;;7.95;2.42;;;;;;;;;;5051451;28;20037;-74
2021/09/24 05:23:17;;;;;;;9.77;2.60;;;;;;;;;;5051725;28;20037;-75
2021/09/24 05:25:42;;;;;;;10.38;2.30;;;;;;;;;;5051775;28;20037;-74
2021/09/24 05:28:08;;;;;;;9.38;2.42;;;;;;;;;;5052777;28;20033;-74
2021/09/24 05:30:34;;;;;;;10.98;2.38;;;;;;;;;;5051981;28;20041;-75
2021/09/24 05:32:59;;;;;;;8.70;2.50;;;;;;;;;;5053824;28;20048;-75
2021/09/24 05:35:25;;;;;;;8.27;2.55;;;;;;;;;;5056218;28;20063;-74
2021/09/24 05:37:50;;;;;;;11.93;2.75;;;;;;;;;;5055321;28;20045;-75
2021/09/24 05:40:16;;;;;;;11.00;2.67;;;;;;;;;;5056348;28;20040;-75
2021/09/24 05:42:42;;;;;;;11.85;3.25;;;;;;;;;;5056379;28;20037;-75
2021/09/24 05:45:11;;;;;;;16.65;2.75;;;;;;;;;;5056219;28;20111;-75
2021/09/24 05:47:38;;;;;;;15.02;2.80;;;;;;;;;;5056319;28;20033;-75
2021/09/24 05:50:10;;;;;;;5.45;2.30;;;;;;;;;;5055095;28;20124;-75
2021/09/24 05:52:36;;;;;;;8.20;2.50;;;;;;;;;;5054977;28;20127;-74
2021/09/24 05:55:02;;;;;;;10.93;2.63;;;;;;;;;;5055963;28;20415;-75
2021/09/24 05:57:27;;;;;;;7.95;2.95;;;;;;;;;;5056383;28;20033;-75
2021/09/24 05:59:53;;;;;;;13.43;2.90;;;;;;;;;;5056138;28;20041;-75
2021/09/24 06:02:18;;;;;;;9.70;2.53;;;;;;;;;;5055991;28;20047;-75
2021/09/24 06:04:43;;;;;;;10.88;2.78;;;;;;;;;;5056059;28;20056;-75
2021/09/24 06:07:09;;;;;;;9.25;3.10;;;;;;;;;;5054535;28;20044;-75
2021/09/24 06:09:34;;;;;;;12.90;4.03;;;;;;;;;;5055825;28;20128;-75
2021/09/24 06:12:00;;;;;;;10.52;2.92;;;;;;;;;;5056184;28;20032;-75
2021/09/24 06:14:25;;;;;;;11.55;2.60;;;;;;;;;;5055732;28;20044;-75
2021/09/24 06:16:50;;;;;;;9.48;2.70;;;;;;;;;;5053292;28;20040;-75
2021/09/24 06:19:16;;;;;;;8.18;2.58;;;;;;;;;;5055594;28;20036;-74
2021/09/24 06:21:41;;;;;;;9.02;2.88;;;;;;;;;;5055674;28;20041;-75
2021/09/24 06:24:06;;;;;;;5.68;2.75;;;;;;;;;;5054491;28;20067;-75
2021/09/24 06:26:32;;;;;;;11.77;3.65;;;;;;;;;;5055545;28;20037;-75
2021/09/24 06:28:57;;;;;;;12.25;3.28;;;;;;;;;;5055671;28;20033;-74
2021/09/24 06:31:23;;;;;;;6.10;2.63;;;;;;;;;;5055513;28;20044;-75
2021/09/24 06:33:50;;;;;;;10.07;3.30;;;;;;;;;;5054868;28;20159;-75
2021/09/24 06:36:18;;;;;;;11.15;3.33;;;;;;;;;;5053995;28;20124;-75
2021/09/24 06:38:44;;;;;;;8.85;3.35;;;;;;;;;;5054407;28;20033;-75
2021/09/24 06:41:10;;;;;;;13.27;3.75;;;;;;;;;;5055001;28;20060;-75
2021/09/24 06:43:35;;;;;;;11.45;4.40;;;;;;;;;;5054254;28;20069;-75
2021/09/24 06:46:01;;;;;;;14.02;4.80;;;;;;;;;;5055030;28;20039;-75
2021/09/24 06:48:26;;;;;;;12.15;3.60;;;;;;;;;;5052976;28;20124;-76
2021/09/24 06:50:51;;;;;;;10.98;3.75;;;;;;;;;;5056091;28;20390;-78
2021/09/24 06:53:17;;;;;;;9.90;3.70;;;;;;;;;;5056416;28;20124;-78
2021/09/24 06:55:45;;;;;;;12.90;4.25;;;;;;;;;;5055200;28;20036;-78
2021/09/24 06:58:11;;;;;;;6.90;3.15;;;;;;;;;;5053926;28;20049;-77
2021/09/24 07:00:36;;;;;;;9.95;3.45;;;;;;;;;;5058371;28;20116;-81
2021/09/24 07:03:01;;;;;;;13.98;4.10;;;;;;;;;;5058424;28;20156;-85
2021/09/24 07:05:27;;;;;;;12.05;3.72;;;;;;;;;;5060335;28;20083;-79
2021/09/24 07:07:52;;;;;;;9.40;4.05;;;;;;;;;;5056770;28;20486;-78
2021/09/24 07:10:18;;;;;;;15.30;4.90;;;;;;;;;;5057063;28;20043;-78
2021/09/24 07:12:43;;;;;;;11.13;4.00;;;;;;;;;;5058479;28;20170;-79
2021/09/24 07:15:10;;;;;;;11.95;4.13;;;;;;;;;;5058552;28;20092;-79
2021/09/24 07:17:36;;;;;;;12.75;4.28;;;;;;;;;;5058389;28;20048;-79
2021/09/24 07:20:02;;;;;;;10.20;4.40;;;;;;;;;;5054764;28;20041;-79
2021/09/24 07:22:28;;;;;;;8.82;3.97;;;;;;;;;;5058258;28;20037;-79
2021/09/24 07:24:54;;;;;;;7.93;3.70;;;;;;;;;;5058002;28;20518;-79
2021/09/24 07:27:20;;;;;;;7.00;3.40;;;;;;;;;;5056669;28;20033;-79
2021/09/24 07:29:46;;;;;;;12.48;3.72;;;;;;;;;;5056954;28;20393;-79
2021/09/24 07:32:11;;;;;;;13.10;4.72;;;;;;;;;;5056702;28;20044;-77
2021/09/24 07:34:39;;;;;;;14.20;4.18;;;;;;;;;;5054663;28;20051;-77
2021/09/24 07:37:05;;;;;;;11.55;3.67;;;;;;;;;;5054257;28;20044;-79
2021/09/24 07:39:31;;;;;;;9.55;3.80;;;;;;;;;;5067129;28;20040;-77
2021/09/24 07:41:56;;;;;;;8.60;3.40;;;;;;;;;;5053758;28;20037;-75
2021/09/24 07:44:22;;;;;;;9.48;4.25;;;;;;;;;;5052793;28;20048;-75
2021/09/24 07:46:49;;;;;;;8.68;3.88;;;;;;;;;;5054096;28;20032;-76
2021/09/24 07:49:14;;;;;;;9.73;3.55;;;;;;;;;;5052700;28;20471;-76
2021/09/24 07:51:40;;;;;;;9.25;3.70;;;;;;;;;;5052223;28;20048;-75
2021/09/24 07:54:05;;;;;;;5.82;2.72;;;;;;;;;;5053780;28;20041;-75
2021/09/24 07:56:31;;;;;;;7.75;4.07;;;;;;;;;;5053040;28;20055;-75
2021/09/24 07:58:56;;;;;;;9.77;4.53;;;;;;;;;;5053181;28;20036;-75
2021/09/24 08:01:24;;;;;;;10.48;3.53;;;;;;;;;;5053855;28;20041;-75
2021/09/24 08:03:50;;;;;;;13.98;4.10;;;;;;;;;;5052981;28;20037;-76
2021/09/24 08:06:16;;;;;;;8.18;3.22;;;;;;;;;;5053829;28;20047;-76
2021/09/24 08:08:42;;;;;;;8.52;3.30;;;;;;;;;;5053773;28;20028;-75
2021/09/24 08:11:07;;;;;;;12.55;3.08;;;;;;;;;;5053640;28;20045;-76
2021/09/24 08:13:32;;;;;;;11.73;3.35;;;;;;;;;;5053222;28;20044;-76
2021/09/24 08:15:58;;;;;;;13.30;3.30;;;;;;;;;;5053300;28;20395;-76
2021/09/24 08:18:24;;;;;;;10.73;3.50;;;;;;;;;;5053562;28;20078;-76
2021/09/24 08:20:51;;;;;;;11.88;3.78;;;;;;;;;;5053222;28;20075;-76
2021/09/24 08:23:16;;;;;;;11.40;3.60;;;;;;;;;;5053546;28;20477;-76
2021/09/24 08:25:41;;;;;;;8.93;3.28;;;;;;;;;;5053332;28;20033;-76
2021/09/24 08:28:07;;;;;;;13.38;3.35;;;;;;;;;;5051395;28;20402;-76
2021/09/24 08:30:33;;;;;;;8.25;3.22;;;;;;;;;;5051967;28;20391;-76
2021/09/24 08:33:01;;;;;;;12.00;3.35;;;;;;;;;;5053121;28;20060;-76
2021/09/24 08:35:27;;;;;;;10.95;3.55;;;;;;;;;;5053334;28;20498;-76
2021/09/24 08:37:53;;;;;;;10.75;3.10;;;;;;;;;;5053189;28;20032;-76
2021/09/24 08:40:21;;;;;;;5.95;2.80;;;;;;;;;;5052414;28;20044;-76
2021/09/24 08:42:47;;;;;;;11.40;2.85;;;;;;;;;;5052952;28;20046;-76
2021/09/24 08:45:16;;;;;;;11.10;2.63;;;;;;;;;;5053210;28;20035;-76
2021/09/24 08:47:42;;;;;;;7.05;2.95;;;;;;;;;;5052237;28;20045;-76
2021/09/24 08:50:09;;;;;;;9.32;3.10;;;;;;;;;;5053044;28;20043;-76
2021/09/24 08:52:37;;;;;;;7.10;2.88;;;;;;;;;;5051992;28;20041;-76
2021/09/24 08:55:09;;;;;;;10.95;3.10;;;;;;;;;;5053121;28;20356;-76
2021/09/24 08:57:35;;;;;;;11.77;4.03;;;;;;;;;;5052949;28;20434;-76
2021/09/24 09:00:01;;;;;;;8.93;3.17;;;;;;;;;;5052995;28;20048;-76
2021/09/24 09:02:26;;;;;;;9.73;3.47;;;;;;;;;;5053141;28;20067;-76
2021/09/24 09:04:55;;;;;;;6.05;2.72;;;;;;;;;;5053189;28;20390;-76
2021/09/24 09:07:21;;;;;;;8.15;3.03;;;;;;;;;;5054986;28;20037;-76
2021/09/24 09:09:50;;;;;;;6.32;3.10;;;;;;;;;;5057040;28;20032;-76
2021/09/24 09:12:20;;;;;;;9.82;3.00;;;;;;;;;;5056117;28;20112;-76
2021/09/24 09:15:11;;;;;;;7.75;2.78;;;;;;;;;;5056553;28;20040;-76
2021/09/24 09:17:39;;;;;;;7.97;3.15;;;;;;;;;;5056870;28;20036;-75
2021/09/24 09:20:14;;;;;;;14.32;3.28;;;;;;;;;;5056984;28;20394;-76
2021/09/24 09:22:40;;;;;;;8.63;3.60;;;;;;;;;;5056950;28;20043;-76
2021/09/24 09:25:13;;;;;;;10.48;3.65;;;;;;;;;;5056804;28;20041;-76
2021/09/24 09:27:38;;;;;;;12.80;4.43;;;;;;;;;;5055493;28;20039;-76
2021/09/24 09:30:11;;;;;;;11.70;3.88;;;;;;;;;;5056717;28;20045;-76
2021/09/24 09:32:42;;;;;;;9.82;3.60;;;;;;;;;;5056835;28;20403;-76
2021/09/24 09:35:08;;;;;;;10.88;3.35;;;;;;;;;;5056629;28;20029;-76
2021/09/24 09:37:38;;;;;;;9.75;3.05;;;;;;;;;;5056550;28;20025;-76
2021/09/24 09:40:16;;;;;;;11.98;3.50;;;;;;;;;;5056578;28;20037;-76
2021/09/24 09:42:44;;;;;;;11.30;3.22;;;;;;;;;;5036574;28;20056;-76
2021/09/24 09:45:14;;;;;;;9.65;3.85;;;;;;;;;;5036560;28;20037;-75
2021/09/24 09:47:43;;;;;;;10.13;3.75;;;;;;;;;;5036434;28;20127;-76
2021/09/24 09:50:13;;;;;;;11.98;3.88;;;;;;;;;;5036563;28;20147;-76
2021/09/24 09:52:57;;;;;;;9.18;3.90;;;;;;;;;;5044311;28;20044;-76
2021/09/24 09:55:25;;;;;;;10.43;3.65;;;;;;;;;;5056170;28;20036;-76
2021/09/24 09:57:52;;;;;;;11.05;3.53;;;;;;;;;;5056259;28;20044;-77
2021/09/24 10:00:18;;;;;;;11.93;4.03;;;;;;;;;;5054996;28;20029;-76
2021/09/24 10:02:43;;;;;;;11.13;4.00;;;;;;;;;;5055048;28;20477;-75
2021/09/24 10:05:09;;;;;;;7.20;3.78;;;;;;;;;;5056283;28;20041;-75
2021/09/24 10:07:38;;;;;;;14.38;4.82;;;;;;;;;;5054967;28;20043;-75
2021/09/24 10:10:08;;;;;;;11.60;4.13;;;;;;;;;;5056053;28;20037;-76
2021/09/24 10:12:35;;;;;;;9.35;4.13;;;;;;;;;;5056062;28;20040;-76
2021/09/24 10:15:01;;;;;;;9.63;4.07;;;;;;;;;;5056034;28;20033;-76
2021/09/24 10:17:26;;;;;;;8.77;4.20;;;;;;;;;;5055983;28;20086;-76
2021/09/24 10:19:54;;;;;;;8.23;3.90;;;;;;;;;;5053761;28;20044;-76
2021/09/24 10:22:20;;;;;;;10.43;4.38;;;;;;;;;;5054948;28;20063;-76
2021/09/24 10:24:46;;;;;;;10.57;4.10;;;;;;;;;;5054365;28;20075;-76
2021/09/24 10:27:29;;;;;;;9.07;4.18;;;;;;;;;;5054982;28;20587;-76
2021/09/24 10:29:57;;;;;;;13.18;5.07;;;;;;;;;;5055376;28;20033;-75
2021/09/24 10:32:27;;;;;;;13.00;4.97;;;;;;;;;;5055711;28;20119;-75
2021/09/24 10:35:00;;;;;;;7.47;4.25;;;;;;;;;;5055844;28;20041;-75
2021/09/24 10:37:27;;;;;;;12.65;4.38;;;;;;;;;;5054888;28;20041;-77
2021/09/24 10:39:59;;;;;;;11.52;4.75;;;;;;;;;;5050713;28;20047;-77
2021/09/24 10:42:35;;;;;;;9.68;3.83;;;;;;;;;;5055279;28;20036;-78
2021/09/24 10:45:16;;;;;;;7.68;3.75;;;;;;;;;;5057914;28;20037;-80
2021/09/24 10:47:47;;;;;;;12.02;3.83;;;;;;;;;;5063118;28;20033;-83
2021/09/24 10:50:37;;;;;;;7.40;4.25;;;;;;;;;;5057974;28;20033;-79
2021/09/24 10:53:22;;;;;;;10.70;3.40;;;;;;;;;;5060313;28;20044;-79
2021/09/24 10:55:54;;;;;;;9.07;3.05;;;;;;;;;;5059314;28;20037;-80
2021/09/24 10:58:31;;;;;;;11.40;2.53;;;;;;;;;;5072710;28;20532;-80
2021/09/24 11:01:04;;;;;;;7.93;2.95;;;;;;;;;;5079252;28;20456;-80
2021/09/24 11:03:31;;;;;;;12.07;3.17;;;;;;;;;;5076985;28;20393;-79
2021/09/24 11:05:57;;;;;;;5.35;2.95;;;;;;;;;;5078636;28;20032;-83
2021/09/24 11:08:38;;;;;;;7.93;2.92;;;;;;;;;;5079663;28;20127;-82
2021/09/24 11:11:06;;;;;;;9.82;3.00;;;;;;;;;;5064143;28;20045;-80
2021/09/24 11:13:34;;;;;;;11.57;4.20;;;;;;;;;;5040859;28;20048;-77
2021/09/24 11:16:04;;;;;;;6.53;2.92;;;;;;;;;;5038170;28;20116;-85
2021/09/24 11:18:48;;;;;;;5.15;2.42;;;;;;;;;;5040179;28;20034;-83
2021/09/24 11:21:20;;;;;;;5.57;2.78;;;;;;;;;;5038740;28;20029;-84
2021/09/24 11:23:47;;;;;;;8.10;2.72;;;;;;;;;;5039926;28;20041;-82
2021/09/24 11:26:17;;;;;;;8.57;3.03;;;;;;;;;;5039808;28;20033;-79
2021/09/24 11:28:44;;;;;;;5.43;3.10;;;;;;;;;;5037749;28;20076;-77
2021/09/24 11:31:13;;;;;;;7.07;3.42;;;;;;;;;;5034064;28;20033;-77
2021/09/24 11:33:43;;;;;;;8.30;3.60;;;;;;;;;;5033891;28;20053;-76
2021/09/24 11:36:08;;;;;;;6.57;3.28;;;;;;;;;;5033976;28;20091;-76
2021/09/24 11:38:34;;;;;;;6.35;3.25;;;;;;;;;;5034211;28;20493;-76
2021/09/24 11:41:00;;;;;;;4.78;2.75;;;;;;;;;;5042091;28;20081;-76
2021/09/24 11:43:30;;;;;;;4.13;3.03;;;;;;;;;;5053969;28;20049;-76
2021/09/24 11:45:58;;;;;;;8.25;3.25;;;;;;;;;;5054193;28;20029;-76
2021/09/24 11:48:32;;;;;;;11.73;3.30;;;;;;;;;;5053918;28;20033;-76
2021/09/24 11:51:12;;;;;;;10.80;3.88;;;;;;;;;;5053755;28;20078;-76
2021/09/24 11:53:45;;;;;;;10.57;3.97;;;;;;;;;;5053882;28;20041;-76
2021/09/24 11:56:11;;;;;;;11.88;4.30;;;;;;;;;;5053791;28;20037;-76
2021/09/24 11:58:36;;;;;;;5.07;3.70;;;;;;;;;;5052999;28;20040;-76
2021/09/24 12:01:02;;;;;;;10.43;4.13;;;;;;;;;;5052805;28;20123;-76
2021/09/24 12:03:30;;;;;;;7.00;3.90;;;;;;;;;;5052505;28;20044;-76
2021/09/24 12:05:55;;;;;;;8.27;4.15;;;;;;;;;;5052249;28;20106;-76
2021/09/24 12:08:23;;;;;;;9.25;4.40;;;;;;;;;;5051688;28;20044;-76
2021/09/24 12:11:07;;;;;;;10.85;4.60;;;;;;;;;;5053830;28;20051;-76
2021/09/24 12:13:44;;;;;;;11.55;4.93;;;;;;;;;;5053699;28;20043;-76
2021/09/24 12:16:20;;;;;;;9.77;4.85;;;;;;;;;;5053442;28;20041;-76
2021/09/24 12:18:46;;;;;;;12.05;5.57;;;;;;;;;;5052371;28;20041;-76
2021/09/24 12:21:14;;;;;;;8.25;4.95;;;;;;;;;;5054000;28;20061;-76
2021/09/24 12:23:40;;;;;;;7.00;4.60;;;;;;;;;;5052971;28;20509;-76
2021/09/24 12:26:08;;;;;;;9.15;4.95;;;;;;;;;;5052987;28;20033;-76
2021/09/24 12:28:35;;;;;;;10.57;5.95;;;;;;;;;;5054012;28;20475;-76
2021/09/24 12:31:02;;;;;;;11.38;5.60;;;;;;;;;;5052698;28;20060;-76
2021/09/24 12:33:28;;;;;;;6.68;4.82;;;;;;;;;;5053963;28;20056;-77
2021/09/24 12:36:05;;;;;;;11.57;5.63;;;;;;;;;;5054134;28;20486;-76
2021/09/24 12:38:33;;;;;;;10.27;6.20;;;;;;;;;;5051918;28;20427;-76
2021/09/24 12:41:11;;;;;;;11.15;6.55;;;;;;;;;;5054029;28;20033;-76
2021/09/24 12:43:37;;;;;;;10.07;5.85;;;;;;;;;;5053291;28;20037;-76
2021/09/24 12:46:06;;;;;;;9.93;6.10;;;;;;;;;;5054444;28;20021;-76
2021/09/24 12:48:43;;;;;;;10.50;5.78;;;;;;;;;;5053730;28;20077;-76
2021/09/24 12:51:10;;;;;;;11.00;6.18;;;;;;;;;;5054469;28;20032;-76
2021/09/24 12:53:37;;;;;;;13.43;6.32;;;;;;;;;;5053716;28;20044;-76
2021/09/24 12:56:03;;;;;;;8.18;5.78;;;;;;;;;;5053589;28;20033;-76
2021/09/24 12:58:38;;;;;;;8.43;5.80;;;;;;;;;;5053046;28;20040;-76
2021/09/24 13:01:05;;;;;;;10.57;5.82;;;;;;;;;;5053407;28;20032;-76
2021/09/24 13:03:40;;;;;;;12.45;7.20;;;;;;;;;;5052543;28;20482;-76
2021/09/24 13:06:05;;;;;;;16.30;7.90;;;;;;;;;;5053403;28;20079;-76
2021/09/24 13:08:31;;;;;;;11.68;6.63;;;;;;;;;;5053673;28;20037;-76
2021/09/24 13:10:57;;;;;;;8.07;5.93;;;;;;;;;;5053423;28;20049;-76
2021/09/24 13:13:25;;;;;;;12.05;7.53;;;;;;;;;;5053579;28;20032;-76
2021/09/24 13:15:52;;;;;;;13.07;8.15;;;;;;;;;;5053021;28;20386;-76
2021/09/24 13:18:17;;;;;;;12.95;8.10;;;;;;;;;;5051679;28;20036;-76
2021/09/24 13:20:43;;;;;;;13.20;8.55;;;;;;;;;;5051752;28;20486;-76
2021/09/24 13:23:09;;;;;;;11.13;7.95;;;;;;;;;;5052025;28;20079;-76
2021/09/24 13:25:34;;;;;;;12.43;8.20;;;;;;;;;;5052987;28;20032;-75
2021/09/24 13:28:00;;;;;;;10.90;8.13;;;;;;;;;;5052844;28;20360;-76
2021/09/24 13:30:25;;;;;;;16.20;8.40;;;;;;;;;;5052350;28;20075;-76
2021/09/24 13:32:51;;;;;;;16.08;9.73;;;;;;;;;;5052569;28;20136;-76
2021/09/24 13:35:16;;;;;;;14.43;8.98;;;;;;;;;;5051540;28;20076;-76
2021/09/24 13:37:43;;;;;;;12.57;8.85;;;;;;;;;;5052833;28;20021;-76
2021/09/24 13:40:09;;;;;;;12.60;7.90;;;;;;;;;;5050553;28;20483;-76
2021/09/24 13:42:37;;;;;;;12.23;8.30;;;;;;;;;;5052823;28;20037;-76
2021/09/24 13:45:04;;;;;;;13.07;9.50;;;;;;;;;;5052756;28;20041;-76
2021/09/24 13:47:29;;;;;;;11.90;8.15;;;;;;;;;;5052756;28;20032;-76
2021/09/24 13:49:55;;;;;;;14.77;8.00;;;;;;;;;;5051355;28;20123;-76
2021/09/24 13:52:20;;;;;;;14.00;9.10;;;;;;;;;;5052544;28;20120;-76
2021/09/24 13:54:46;;;;;;;15.45;8.77;;;;;;;;;;5053806;28;20036;-76
2021/09/24 13:57:11;;;;;;;14.50;7.70;;;;;;;;;;5056530;28;20037;-75
2021/09/24 13:59:37;;;;;;;13.38;8.05;;;;;;;;;;5056199;28;20043;-76
2021/09/24 14:02:03;;;;;;;12.27;8.18;;;;;;;;;;5056387;28;20029;-76
2021/09/24 14:04:28;;;;;;;12.45;7.93;;;;;;;;;;5056079;28;20029;-76
2021/09/24 14:06:54;;;;;;;11.18;8.18;;;;;;;;;;5056225;28;20483;-76
2021/09/24 14:09:19;;;;;;;13.88;8.45;;;;;;;;;;5055580;28;20059;-74
2021/09/24 14:11:45;;;;;;;9.68;7.75;;;;;;;;;;5056390;28;20041;-78
2021/09/24 14:14:10;;;;;;;13.23;8.05;;;;;;;;;;5048844;28;20132;-79
2021/09/24 14:16:36;;;;;;;12.60;8.55;;;;;;;;;;5047015;28;20044;-79
2021/09/24 14:19:03;;;;;;;14.23;9.52;;;;;;;;;;5057209;28;20029;-78
2021/09/24 14:21:28;;;;;;;22.98;8.23;;;;;;;;;;5040222;28;20451;-78
2021/09/24 14:23:54;;;;;;;14.82;8.38;;;;;;;;;;5058217;28;20029;-80
2021/09/24 14:26:21;;;;;;;12.60;8.40;;;;;;;;;;5053731;28;20030;-81
2021/09/24 14:28:50;;;;;;;13.63;7.00;;;;;;;;;;5060845;28;20042;-81
2021/09/24 14:31:18;;;;;;;7.95;6.35;;;;;;;;;;5058679;28;20120;-80
2021/09/24 14:33:44;;;;;;;14.05;8.20;;;;;;;;;;5060096;28;20057;-79